sensor_id;sensor_type;location;lat;lon;timestamp;pressure;altitude;pressure_sealevel;temperature
71649;BMP180;59492;45.638;11.714;2022-10-22T00:01:59;101291.60;;;22.90
71649;BMP180;59492;45.638;11.714;2022-10-22T00:04:25;101288.00;;;22.84
71649;BMP180;59492;45.638;11.714;2022-10-22T00:06:50;101282.80;;;22.80
71649;BMP180;59492;45.638;11.714;2022-10-22T00:09:16;101276.60;;;22.80
71649;BMP180;59492;45.638;11.714;2022-10-22T00:11:42;101276.80;;;22.80
71649;BMP180;59492;45.638;11.714;2022-10-22T00:14:08;101278.80;;;22.74
71649;BMP180;59492;45.638;11.714;2022-10-22T00:16:34;101282.20;;;22.70
71649;BMP180;59492;45.638;11.714;2022-10-22T00:18:59;101285.60;;;22.70
71649;BMP180;59492;45.638;11.714;2022-10-22T00:21:25;101283.60;;;22.66
71649;BMP180;59492;45.638;11.714;2022-10-22T00:23:54;101276.80;;;22.60
71649;BMP180;59492;45.638;11.714;2022-10-22T00:26:21;101274.20;;;22.70
71649;BMP180;59492;45.638;11.714;2022-10-22T00:28:46;101270.20;;;22.70
71649;BMP180;59492;45.638;11.714;2022-10-22T00:31:12;101270.80;;;22.70
71649;BMP180;59492;45.638;11.714;2022-10-22T00:33:40;101270.40;;;22.66
71649;BMP180;59492;45.638;11.714;2022-10-22T00:36:07;101277.80;;;22.60
71649;BMP180;59492;45.638;11.714;2022-10-22T00:38:33;101278.40;;;22.60
71649;BMP180;59492;45.638;11.714;2022-10-22T00:40:59;101270.80;;;22.56
71649;BMP180;59492;45.638;11.714;2022-10-22T00:43:26;101269.60;;;22.52
71649;BMP180;59492;45.638;11.714;2022-10-22T00:45:51;101267.20;;;22.50
71649;BMP180;59492;45.638;11.714;2022-10-22T00:48:24;101266.80;;;22.50
71649;BMP180;59492;45.638;11.714;2022-10-22T00:51:09;101262.20;;;22.44
71649;BMP180;59492;45.638;11.714;2022-10-22T00:53:42;101253.20;;;22.40
71649;BMP180;59492;45.638;11.714;2022-10-22T00:56:08;101251.60;;;22.40
71649;BMP180;59492;45.638;11.714;2022-10-22T00:58:38;101249.80;;;22.40
71649;BMP180;59492;45.638;11.714;2022-10-22T01:01:05;101239.80;;;22.38
71649;BMP180;59492;45.638;11.714;2022-10-22T01:03:33;101227.80;;;22.36
71649;BMP180;59492;45.638;11.714;2022-10-22T01:06:00;101228.00;;;22.40
71649;BMP180;59492;45.638;11.714;2022-10-22T01:08:45;101224.60;;;22.42
71649;BMP180;59492;45.638;11.714;2022-10-22T01:11:26;101219.40;;;22.40
71649;BMP180;59492;45.638;11.714;2022-10-22T01:16:29;101194.80;;;22.32
71649;BMP180;59492;45.638;11.714;2022-10-22T01:22:38;101186.80;;;22.20
71649;BMP180;59492;45.638;11.714;2022-10-22T01:30:32;101174.40;;;22.20
71649;BMP180;59492;45.638;11.714;2022-10-22T01:33:02;101176.40;;;22.20
71649;BMP180;59492;45.638;11.714;2022-10-22T01:35:47;101180.00;;;22.16
71649;BMP180;59492;45.638;11.714;2022-10-22T01:38:20;101174.20;;;22.10
71649;BMP180;59492;45.638;11.714;2022-10-22T01:40:49;101168.80;;;22.10
71649;BMP180;59492;45.638;11.714;2022-10-22T01:43:16;101169.00;;;22.20
71649;BMP180;59492;45.638;11.714;2022-10-22T01:45:44;101171.80;;;22.26
71649;BMP180;59492;45.638;11.714;2022-10-22T02:00:09;101159.20;;;22.00
71649;BMP180;59492;45.638;11.714;2022-10-22T02:05:12;101157.80;;;22.04
71649;BMP180;59492;45.638;11.714;2022-10-22T02:07:46;101155.00;;;22.00
71649;BMP180;59492;45.638;11.714;2022-10-22T02:10:12;101152.60;;;22.00
71649;BMP180;59492;45.638;11.714;2022-10-22T02:12:41;101149.00;;;22.00
71649;BMP180;59492;45.638;11.714;2022-10-22T02:15:09;101145.20;;;22.00
71649;BMP180;59492;45.638;11.714;2022-10-22T02:17:37;101145.40;;;22.00
71649;BMP180;59492;45.638;11.714;2022-10-22T02:20:17;101133.60;;;22.10
71649;BMP180;59492;45.638;11.714;2022-10-22T02:22:44;101129.40;;;22.10
71649;BMP180;59492;45.638;11.714;2022-10-22T02:25:10;101128.00;;;22.10
71649;BMP180;59492;45.638;11.714;2022-10-22T02:28:12;101135.40;;;22.04
71649;BMP180;59492;45.638;11.714;2022-10-22T02:30:37;101147.00;;;21.98
71649;BMP180;59492;45.638;11.714;2022-10-22T02:33:14;101147.40;;;22.00
71649;BMP180;59492;45.638;11.714;2022-10-22T02:35:42;101133.00;;;21.96
71649;BMP180;59492;45.638;11.714;2022-10-22T02:38:09;101130.20;;;21.96
71649;BMP180;59492;45.638;11.714;2022-10-22T02:40:36;101125.60;;;21.94
71649;BMP180;59492;45.638;11.714;2022-10-22T02:43:05;101117.40;;;21.92
71649;BMP180;59492;45.638;11.714;2022-10-22T02:45:31;101118.20;;;21.90
71649;BMP180;59492;45.638;11.714;2022-10-22T02:47:59;101117.00;;;21.90
71649;BMP180;59492;45.638;11.714;2022-10-22T02:50:24;101117.00;;;21.90
71649;BMP180;59492;45.638;11.714;2022-10-22T02:52:50;101114.00;;;21.90
71649;BMP180;59492;45.638;11.714;2022-10-22T02:55:16;101122.60;;;21.94
71649;BMP180;59492;45.638;11.714;2022-10-22T02:57:41;101128.20;;;22.00
71649;BMP180;59492;45.638;11.714;2022-10-22T03:00:09;101131.40;;;22.00
71649;BMP180;59492;45.638;11.714;2022-10-22T03:02:35;101128.80;;;21.94
71649;BMP180;59492;45.638;11.714;2022-10-22T03:05:01;101127.20;;;21.90
71649;BMP180;59492;45.638;11.714;2022-10-22T03:07:26;101114.00;;;21.90
71649;BMP180;59492;45.638;11.714;2022-10-22T03:09:52;101109.20;;;21.90
71649;BMP180;59492;45.638;11.714;2022-10-22T03:12:17;101117.00;;;21.90
71649;BMP180;59492;45.638;11.714;2022-10-22T03:14:43;101127.40;;;21.90
71649;BMP180;59492;45.638;11.714;2022-10-22T03:17:09;101119.40;;;21.88
71649;BMP180;59492;45.638;11.714;2022-10-22T03:19:34;101108.40;;;21.84
71649;BMP180;59492;45.638;11.714;2022-10-22T03:22:03;101104.80;;;21.80
71649;BMP180;59492;45.638;11.714;2022-10-22T03:24:39;101109.20;;;21.80
71649;BMP180;59492;45.638;11.714;2022-10-22T03:27:06;101105.80;;;21.80
71649;BMP180;59492;45.638;11.714;2022-10-22T03:29:34;101103.20;;;21.86
71649;BMP180;59492;45.638;11.714;2022-10-22T03:32:00;101102.00;;;21.90
71649;BMP180;59492;45.638;11.714;2022-10-22T03:34:26;101087.80;;;21.90
71649;BMP180;59492;45.638;11.714;2022-10-22T03:36:52;101074.00;;;21.88
71649;BMP180;59492;45.638;11.714;2022-10-22T03:39:19;101079.60;;;21.82
71649;BMP180;59492;45.638;11.714;2022-10-22T03:41:47;101082.40;;;21.80
71649;BMP180;59492;45.638;11.714;2022-10-22T03:44:14;101084.00;;;21.80
71649;BMP180;59492;45.638;11.714;2022-10-22T03:46:40;101084.40;;;21.80
71649;BMP180;59492;45.638;11.714;2022-10-22T03:49:05;101083.60;;;21.80
71649;BMP180;59492;45.638;11.714;2022-10-22T03:51:31;101076.00;;;21.80
71649;BMP180;59492;45.638;11.714;2022-10-22T03:53:56;101072.00;;;21.80
71649;BMP180;59492;45.638;11.714;2022-10-22T03:56:22;101076.60;;;21.76
71649;BMP180;59492;45.638;11.714;2022-10-22T03:58:48;101064.80;;;21.74
71649;BMP180;59492;45.638;11.714;2022-10-22T04:01:13;101058.00;;;21.70
71649;BMP180;59492;45.638;11.714;2022-10-22T04:03:40;101054.00;;;21.80
71649;BMP180;59492;45.638;11.714;2022-10-22T04:06:10;101048.00;;;21.80
71649;BMP180;59492;45.638;11.714;2022-10-22T04:08:41;101062.40;;;21.80
71649;BMP180;59492;45.638;11.714;2022-10-22T04:11:07;101069.20;;;21.80
71649;BMP180;59492;45.638;11.714;2022-10-22T04:13:33;101072.60;;;21.80
71649;BMP180;59492;45.638;11.714;2022-10-22T04:16:17;101068.00;;;21.76
71649;BMP180;59492;45.638;11.714;2022-10-22T04:18:44;101056.80;;;21.70
71649;BMP180;59492;45.638;11.714;2022-10-22T04:21:12;101061.80;;;21.70
71649;BMP180;59492;45.638;11.714;2022-10-22T04:23:39;101066.40;;;21.70
71649;BMP180;59492;45.638;11.714;2022-10-22T04:26:08;101067.20;;;21.70
71649;BMP180;59492;45.638;11.714;2022-10-22T04:28:34;101068.20;;;21.70
71649;BMP180;59492;45.638;11.714;2022-10-22T04:31:00;101067.00;;;21.70
71649;BMP180;59492;45.638;11.714;2022-10-22T04:33:28;101065.60;;;21.70
71649;BMP180;59492;45.638;11.714;2022-10-22T04:35:54;101064.20;;;21.70
71649;BMP180;59492;45.638;11.714;2022-10-22T04:38:20;101059.00;;;21.80
71649;BMP180;59492;45.638;11.714;2022-10-22T04:40:45;101057.20;;;21.80
71649;BMP180;59492;45.638;11.714;2022-10-22T04:43:11;101059.60;;;21.74
71649;BMP180;59492;45.638;11.714;2022-10-22T04:45:36;101053.60;;;21.70
71649;BMP180;59492;45.638;11.714;2022-10-22T04:48:02;101048.80;;;21.70
71649;BMP180;59492;45.638;11.714;2022-10-22T04:50:27;101060.00;;;21.70
71649;BMP180;59492;45.638;11.714;2022-10-22T04:52:54;101052.00;;;21.70
71649;BMP180;59492;45.638;11.714;2022-10-22T04:55:20;101044.20;;;21.70
71649;BMP180;59492;45.638;11.714;2022-10-22T04:57:45;101045.80;;;21.68
71649;BMP180;59492;45.638;11.714;2022-10-22T05:00:11;101041.80;;;21.66
71649;BMP180;59492;45.638;11.714;2022-10-22T05:02:37;101043.00;;;21.64
71649;BMP180;59492;45.638;11.714;2022-10-22T05:05:03;101043.80;;;21.62
71649;BMP180;59492;45.638;11.714;2022-10-22T05:07:28;101039.00;;;21.60
71649;BMP180;59492;45.638;11.714;2022-10-22T05:09:54;101039.80;;;21.70
71649;BMP180;59492;45.638;11.714;2022-10-22T05:12:19;101037.80;;;21.72
71649;BMP180;59492;45.638;11.714;2022-10-22T05:14:45;101041.60;;;21.70
71649;BMP180;59492;45.638;11.714;2022-10-22T05:17:10;101031.40;;;21.70
71649;BMP180;59492;45.638;11.714;2022-10-22T05:19:36;101026.60;;;21.70
71649;BMP180;59492;45.638;11.714;2022-10-22T05:22:03;101025.20;;;21.66
71649;BMP180;59492;45.638;11.714;2022-10-22T05:24:31;101022.20;;;21.66
71649;BMP180;59492;45.638;11.714;2022-10-22T05:26:58;101014.40;;;21.60
71649;BMP180;59492;45.638;11.714;2022-10-22T05:29:24;101010.60;;;21.60
71649;BMP180;59492;45.638;11.714;2022-10-22T05:31:51;101012.20;;;21.60
71649;BMP180;59492;45.638;11.714;2022-10-22T05:34:17;101023.60;;;21.60
71649;BMP180;59492;45.638;11.714;2022-10-22T05:36:43;101020.40;;;21.60
71649;BMP180;59492;45.638;11.714;2022-10-22T05:39:09;101023.60;;;21.60
71649;BMP180;59492;45.638;11.714;2022-10-22T05:41:35;101007.60;;;21.60
71649;BMP180;59492;45.638;11.714;2022-10-22T05:44:01;101009.60;;;21.66
71649;BMP180;59492;45.638;11.714;2022-10-22T05:46:28;101010.20;;;21.70
71649;BMP180;59492;45.638;11.714;2022-10-22T05:48:58;101017.60;;;21.70
71649;BMP180;59492;45.638;11.714;2022-10-22T05:51:27;101015.60;;;21.66
71649;BMP180;59492;45.638;11.714;2022-10-22T05:53:56;101018.60;;;21.62
71649;BMP180;59492;45.638;11.714;2022-10-22T05:56:25;101019.20;;;21.60
71649;BMP180;59492;45.638;11.714;2022-10-22T05:58:55;101029.00;;;21.60
71649;BMP180;59492;45.638;11.714;2022-10-22T06:01:26;101024.80;;;21.60
71649;BMP180;59492;45.638;11.714;2022-10-22T06:03:59;101032.00;;;21.60
71649;BMP180;59492;45.638;11.714;2022-10-22T06:06:33;101026.60;;;21.60
71649;BMP180;59492;45.638;11.714;2022-10-22T06:09:06;101031.20;;;21.58
71649;BMP180;59492;45.638;11.714;2022-10-22T06:11:33;101027.60;;;21.58
71649;BMP180;59492;45.638;11.714;2022-10-22T06:14:00;101033.40;;;21.40
71649;BMP180;59492;45.638;11.714;2022-10-22T06:16:28;101034.40;;;21.50
71649;BMP180;59492;45.638;11.714;2022-10-22T06:19:00;101030.80;;;21.60
71649;BMP180;59492;45.638;11.714;2022-10-22T06:21:27;101027.60;;;21.60
71649;BMP180;59492;45.638;11.714;2022-10-22T06:23:58;101028.60;;;21.60
71649;BMP180;59492;45.638;11.714;2022-10-22T06:26:25;101022.00;;;21.60
71649;BMP180;59492;45.638;11.714;2022-10-22T06:28:51;101024.20;;;21.60
71649;BMP180;59492;45.638;11.714;2022-10-22T06:31:17;101032.40;;;21.60
71649;BMP180;59492;45.638;11.714;2022-10-22T06:33:43;101037.40;;;21.60
71649;BMP180;59492;45.638;11.714;2022-10-22T06:36:14;101048.20;;;21.60
71649;BMP180;59492;45.638;11.714;2022-10-22T06:38:41;101055.00;;;21.58
71649;BMP180;59492;45.638;11.714;2022-10-22T06:41:14;101061.40;;;21.60
71649;BMP180;59492;45.638;11.714;2022-10-22T06:43:43;101058.60;;;21.52
71649;BMP180;59492;45.638;11.714;2022-10-22T06:46:14;101058.80;;;21.54
71649;BMP180;59492;45.638;11.714;2022-10-22T06:48:41;101058.60;;;21.60
71649;BMP180;59492;45.638;11.714;2022-10-22T06:51:10;101058.00;;;21.70
71649;BMP180;59492;45.638;11.714;2022-10-22T06:53:37;101058.80;;;21.66
71649;BMP180;59492;45.638;11.714;2022-10-22T06:56:05;101060.40;;;21.64
71649;BMP180;59492;45.638;11.714;2022-10-22T06:58:30;101060.80;;;21.60
71649;BMP180;59492;45.638;11.714;2022-10-22T07:03:27;101071.40;;;21.60
71649;BMP180;59492;45.638;11.714;2022-10-22T07:05:53;101070.80;;;21.60
71649;BMP180;59492;45.638;11.714;2022-10-22T07:08:18;101075.20;;;21.60
71649;BMP180;59492;45.638;11.714;2022-10-22T07:10:44;101073.60;;;21.60
71649;BMP180;59492;45.638;11.714;2022-10-22T07:13:10;101079.60;;;21.60
71649;BMP180;59492;45.638;11.714;2022-10-22T07:15:35;101078.00;;;21.60
71649;BMP180;59492;45.638;11.714;2022-10-22T07:18:01;101081.20;;;21.60
71649;BMP180;59492;45.638;11.714;2022-10-22T07:20:29;101076.80;;;21.60
71649;BMP180;59492;45.638;11.714;2022-10-22T07:22:54;101083.20;;;21.70
71649;BMP180;59492;45.638;11.714;2022-10-22T07:25:20;101076.00;;;21.70
71649;BMP180;59492;45.638;11.714;2022-10-22T07:27:46;101075.60;;;21.68
71649;BMP180;59492;45.638;11.714;2022-10-22T07:30:11;101061.20;;;21.64
71649;BMP180;59492;45.638;11.714;2022-10-22T07:32:37;101059.60;;;21.60
71649;BMP180;59492;45.638;11.714;2022-10-22T07:35:03;101069.00;;;21.60
71649;BMP180;59492;45.638;11.714;2022-10-22T07:37:29;101072.00;;;21.60
71649;BMP180;59492;45.638;11.714;2022-10-22T07:39:54;101075.80;;;21.60
71649;BMP180;59492;45.638;11.714;2022-10-22T07:42:20;101076.40;;;21.60
71649;BMP180;59492;45.638;11.714;2022-10-22T07:44:46;101079.60;;;21.60
71649;BMP180;59492;45.638;11.714;2022-10-22T07:47:12;101084.00;;;21.60
71649;BMP180;59492;45.638;11.714;2022-10-22T07:49:38;101086.40;;;21.60
71649;BMP180;59492;45.638;11.714;2022-10-22T07:52:03;101089.00;;;21.64
71649;BMP180;59492;45.638;11.714;2022-10-22T07:54:30;101087.40;;;21.70
71649;BMP180;59492;45.638;11.714;2022-10-22T07:56:56;101089.20;;;21.80
71649;BMP180;59492;45.638;11.714;2022-10-22T07:59:21;101090.40;;;21.80
71649;BMP180;59492;45.638;11.714;2022-10-22T08:01:47;101088.40;;;21.76
71649;BMP180;59492;45.638;11.714;2022-10-22T08:04:13;101096.40;;;21.70
71649;BMP180;59492;45.638;11.714;2022-10-22T08:06:38;101094.20;;;21.70
71649;BMP180;59492;45.638;11.714;2022-10-22T08:09:04;101092.60;;;21.70
71649;BMP180;59492;45.638;11.714;2022-10-22T08:11:30;101087.60;;;21.70
71649;BMP180;59492;45.638;11.714;2022-10-22T08:13:58;101089.40;;;21.70
71649;BMP180;59492;45.638;11.714;2022-10-22T08:16:24;101100.00;;;21.70
71649;BMP180;59492;45.638;11.714;2022-10-22T08:18:50;101097.40;;;21.70
71649;BMP180;59492;45.638;11.714;2022-10-22T08:21:15;101102.20;;;21.70
71649;BMP180;59492;45.638;11.714;2022-10-22T08:23:42;101101.40;;;21.70
71649;BMP180;59492;45.638;11.714;2022-10-22T08:26:08;101099.20;;;21.70
71649;BMP180;59492;45.638;11.714;2022-10-22T08:28:34;101101.80;;;21.74
71649;BMP180;59492;45.638;11.714;2022-10-22T08:31:06;101102.40;;;21.80
71649;BMP180;59492;45.638;11.714;2022-10-22T08:33:32;101103.60;;;21.80
71649;BMP180;59492;45.638;11.714;2022-10-22T08:35:58;101103.80;;;21.80
71649;BMP180;59492;45.638;11.714;2022-10-22T08:38:24;101105.20;;;21.78
71649;BMP180;59492;45.638;11.714;2022-10-22T08:41:02;101102.20;;;21.80
71649;BMP180;59492;45.638;11.714;2022-10-22T08:46:13;101090.20;;;21.80
71649;BMP180;59492;45.638;11.714;2022-10-22T08:48:49;101101.60;;;21.80
71649;BMP180;59492;45.638;11.714;2022-10-22T08:51:23;101104.40;;;21.80
71649;BMP180;59492;45.638;11.714;2022-10-22T08:54:21;101107.40;;;21.80
71649;BMP180;59492;45.638;11.714;2022-10-22T08:56:58;101112.00;;;21.80
71649;BMP180;59492;45.638;11.714;2022-10-22T09:00:14;101104.00;;;21.80
71649;BMP180;59492;45.638;11.714;2022-10-22T09:05:02;101093.60;;;21.90
71649;BMP180;59492;45.638;11.714;2022-10-22T09:07:30;101094.80;;;21.90
71649;BMP180;59492;45.638;11.714;2022-10-22T09:09:58;101093.00;;;22.00
71649;BMP180;59492;45.638;11.714;2022-10-22T09:12:26;101097.20;;;22.00
71649;BMP180;59492;45.638;11.714;2022-10-22T09:14:52;101105.00;;;22.00
71649;BMP180;59492;45.638;11.714;2022-10-22T09:17:49;101098.80;;;22.10
71649;BMP180;59492;45.638;11.714;2022-10-22T09:20:31;101097.20;;;22.00
71649;BMP180;59492;45.638;11.714;2022-10-22T09:23:04;101097.00;;;22.06
71649;BMP180;59492;45.638;11.714;2022-10-22T09:25:37;101105.40;;;22.10
71649;BMP180;59492;45.638;11.714;2022-10-22T09:28:03;101105.40;;;22.10
71649;BMP180;59492;45.638;11.714;2022-10-22T09:30:34;101109.00;;;22.14
71649;BMP180;59492;45.638;11.714;2022-10-22T09:35:53;101110.00;;;22.20
71649;BMP180;59492;45.638;11.714;2022-10-22T09:38:24;101113.20;;;22.20
71649;BMP180;59492;45.638;11.714;2022-10-22T09:40:52;101106.20;;;22.20
71649;BMP180;59492;45.638;11.714;2022-10-22T09:43:19;101111.80;;;22.20
71649;BMP180;59492;45.638;11.714;2022-10-22T09:45:45;101117.20;;;22.20
71649;BMP180;59492;45.638;11.714;2022-10-22T09:48:16;101123.60;;;22.20
71649;BMP180;59492;45.638;11.714;2022-10-22T09:50:44;101124.20;;;22.20
71649;BMP180;59492;45.638;11.714;2022-10-22T09:53:19;101132.80;;;22.20
71649;BMP180;59492;45.638;11.714;2022-10-22T09:55:50;101120.00;;;22.30
71649;BMP180;59492;45.638;11.714;2022-10-22T09:58:16;101116.80;;;22.30
71649;BMP180;59492;45.638;11.714;2022-10-22T10:00:49;101121.40;;;22.28
71649;BMP180;59492;45.638;11.714;2022-10-22T10:03:21;101120.20;;;22.28
71649;BMP180;59492;45.638;11.714;2022-10-22T10:05:51;101113.80;;;22.28
71649;BMP180;59492;45.638;11.714;2022-10-22T10:08:18;101112.00;;;22.22
71649;BMP180;59492;45.638;11.714;2022-10-22T10:10:47;101123.00;;;22.24
71649;BMP180;59492;45.638;11.714;2022-10-22T10:13:34;101127.20;;;22.22
71649;BMP180;59492;45.638;11.714;2022-10-22T10:16:14;101138.20;;;22.20
71649;BMP180;59492;45.638;11.714;2022-10-22T10:24:52;101148.40;;;22.20
71649;BMP180;59492;45.638;11.714;2022-10-22T10:27:22;101150.20;;;22.18
71649;BMP180;59492;45.638;11.714;2022-10-22T10:40:51;101140.80;;;22.20
71649;BMP180;59492;45.638;11.714;2022-10-22T10:43:47;101138.40;;;22.20
71649;BMP180;59492;45.638;11.714;2022-10-22T10:46:43;101143.80;;;22.20
71649;BMP180;59492;45.638;11.714;2022-10-22T10:49:25;101149.80;;;22.18
71649;BMP180;59492;45.638;11.714;2022-10-22T11:00:16;101148.00;;;22.10
71649;BMP180;59492;45.638;11.714;2022-10-22T11:03:11;101147.20;;;22.20
71649;BMP180;59492;45.638;11.714;2022-10-22T11:05:59;101155.00;;;22.30
71649;BMP180;59492;45.638;11.714;2022-10-22T11:08:36;101141.20;;;22.30
71649;BMP180;59492;45.638;11.714;2022-10-22T11:11:20;101145.60;;;22.40
71649;BMP180;59492;45.638;11.714;2022-10-22T11:13:51;101148.40;;;22.40
71649;BMP180;59492;45.638;11.714;2022-10-22T11:16:26;101157.00;;;22.50
71649;BMP180;59492;45.638;11.714;2022-10-22T11:24:50;101178.40;;;22.60
71649;BMP180;59492;45.638;11.714;2022-10-22T11:27:28;101178.20;;;22.70
71649;BMP180;59492;45.638;11.714;2022-10-22T11:30:03;101180.80;;;22.70
71649;BMP180;59492;45.638;11.714;2022-10-22T11:32:30;101187.00;;;22.80
71649;BMP180;59492;45.638;11.714;2022-10-22T11:35:02;101199.00;;;22.88
71649;BMP180;59492;45.638;11.714;2022-10-22T11:37:31;101193.40;;;23.00
71649;BMP180;59492;45.638;11.714;2022-10-22T11:42:36;101186.00;;;23.12
71649;BMP180;59492;45.638;11.714;2022-10-22T11:45:26;101203.00;;;23.20
71649;BMP180;59492;45.638;11.714;2022-10-22T11:53:18;101192.00;;;23.30
71649;BMP180;59492;45.638;11.714;2022-10-22T11:55:47;101197.40;;;23.30
71649;BMP180;59492;45.638;11.714;2022-10-22T11:58:28;101187.60;;;23.40
71649;BMP180;59492;45.638;11.714;2022-10-22T12:03:50;101204.60;;;23.40
71649;BMP180;59492;45.638;11.714;2022-10-22T12:06:22;101189.00;;;23.50
71649;BMP180;59492;45.638;11.714;2022-10-22T12:14:02;101196.60;;;23.60
71649;BMP180;59492;45.638;11.714;2022-10-22T12:16:51;101188.60;;;23.60
71649;BMP180;59492;45.638;11.714;2022-10-22T12:19:35;101185.40;;;23.70
71649;BMP180;59492;45.638;11.714;2022-10-22T12:22:28;101174.00;;;23.80
71649;BMP180;59492;45.638;11.714;2022-10-22T12:24:56;101175.80;;;23.80
71649;BMP180;59492;45.638;11.714;2022-10-22T12:27:37;101182.60;;;23.84
71649;BMP180;59492;45.638;11.714;2022-10-22T12:30:24;101176.80;;;23.88
71649;BMP180;59492;45.638;11.714;2022-10-22T12:32:56;101177.60;;;23.86
71649;BMP180;59492;45.638;11.714;2022-10-22T12:35:31;101179.60;;;23.90
71649;BMP180;59492;45.638;11.714;2022-10-22T12:38:01;101175.60;;;23.86
71649;BMP180;59492;45.638;11.714;2022-10-22T12:40:30;101170.00;;;23.84
71649;BMP180;59492;45.638;11.714;2022-10-22T12:43:00;101159.60;;;23.80
71649;BMP180;59492;45.638;11.714;2022-10-22T12:45:29;101164.60;;;23.80
71649;BMP180;59492;45.638;11.714;2022-10-22T12:47:59;101163.60;;;23.78
71649;BMP180;59492;45.638;11.714;2022-10-22T12:50:39;101181.20;;;23.70
71649;BMP180;59492;45.638;11.714;2022-10-22T12:53:30;101191.40;;;23.70
71649;BMP180;59492;45.638;11.714;2022-10-22T12:56:11;101178.60;;;23.60
71649;BMP180;59492;45.638;11.714;2022-10-22T13:01:33;101163.00;;;23.52
71649;BMP180;59492;45.638;11.714;2022-10-22T13:04:35;101161.60;;;23.50
71649;BMP180;59492;45.638;11.714;2022-10-22T13:07:16;101166.60;;;23.50
71649;BMP180;59492;45.638;11.714;2022-10-22T13:12:11;101158.80;;;23.56
71649;BMP180;59492;45.638;11.714;2022-10-22T13:14:42;101159.00;;;23.50
71649;BMP180;59492;45.638;11.714;2022-10-22T13:17:18;101157.20;;;23.48
71649;BMP180;59492;45.638;11.714;2022-10-22T13:20:00;101167.40;;;23.40
71649;BMP180;59492;45.638;11.714;2022-10-22T13:25:19;101170.80;;;23.36
71649;BMP180;59492;45.638;11.714;2022-10-22T13:28:29;101181.00;;;23.30
71649;BMP180;59492;45.638;11.714;2022-10-22T13:30:36;101172.20;;;23.24
71649;BMP180;59492;45.638;11.714;2022-10-22T13:35:54;101180.00;;;23.20
71649;BMP180;59492;45.638;11.714;2022-10-22T13:38:25;101181.20;;;23.20
71649;BMP180;59492;45.638;11.714;2022-10-22T13:40:52;101180.00;;;23.20
71649;BMP180;59492;45.638;11.714;2022-10-22T13:43:18;101178.60;;;23.12
71649;BMP180;59492;45.638;11.714;2022-10-22T13:45:46;101184.40;;;23.10
71649;BMP180;59492;45.638;11.714;2022-10-22T13:48:17;101195.40;;;23.10
71649;BMP180;59492;45.638;11.714;2022-10-22T13:50:47;101185.40;;;23.08
71649;BMP180;59492;45.638;11.714;2022-10-22T13:53:19;101170.00;;;23.10
71649;BMP180;59492;45.638;11.714;2022-10-22T13:55:46;101163.80;;;23.10
71649;BMP180;59492;45.638;11.714;2022-10-22T13:58:14;101153.60;;;23.10
71649;BMP180;59492;45.638;11.714;2022-10-22T14:00:47;101154.40;;;23.10
71649;BMP180;59492;45.638;11.714;2022-10-22T14:03:18;101145.60;;;23.02
71649;BMP180;59492;45.638;11.714;2022-10-22T14:05:46;101150.80;;;23.00
71649;BMP180;59492;45.638;11.714;2022-10-22T14:08:19;101156.40;;;23.00
71649;BMP180;59492;45.638;11.714;2022-10-22T14:10:48;101157.00;;;22.94
71649;BMP180;59492;45.638;11.714;2022-10-22T14:13:16;101147.60;;;22.94
71649;BMP180;59492;45.638;11.714;2022-10-22T14:15:45;101152.40;;;22.96
71649;BMP180;59492;45.638;11.714;2022-10-22T14:18:16;101152.20;;;22.92
71649;BMP180;59492;45.638;11.714;2022-10-22T14:20:51;101156.00;;;22.90
71649;BMP180;59492;45.638;11.714;2022-10-22T14:23:19;101152.40;;;22.90
71649;BMP180;59492;45.638;11.714;2022-10-22T14:25:46;101157.00;;;22.90
71649;BMP180;59492;45.638;11.714;2022-10-22T14:28:12;101152.20;;;22.90
71649;BMP180;59492;45.638;11.714;2022-10-22T14:30:38;101151.60;;;22.90
71649;BMP180;59492;45.638;11.714;2022-10-22T14:33:29;101152.40;;;22.90
71649;BMP180;59492;45.638;11.714;2022-10-22T14:35:56;101146.00;;;22.80
71649;BMP180;59492;45.638;11.714;2022-10-22T14:38:21;101153.20;;;22.90
71649;BMP180;59492;45.638;11.714;2022-10-22T14:40:48;101152.00;;;22.96
71649;BMP180;59492;45.638;11.714;2022-10-22T14:43:27;101154.20;;;22.90
71649;BMP180;59492;45.638;11.714;2022-10-22T14:45:53;101157.00;;;22.90
71649;BMP180;59492;45.638;11.714;2022-10-22T14:48:19;101150.80;;;22.90
71649;BMP180;59492;45.638;11.714;2022-10-22T14:50:46;101145.00;;;22.88
71649;BMP180;59492;45.638;11.714;2022-10-22T14:53:12;101160.20;;;22.84
71649;BMP180;59492;45.638;11.714;2022-10-22T14:55:41;101166.80;;;22.80
71649;BMP180;59492;45.638;11.714;2022-10-22T14:58:09;101169.00;;;22.80
71649;BMP180;59492;45.638;11.714;2022-10-22T15:00:35;101173.80;;;22.80
71649;BMP180;59492;45.638;11.714;2022-10-22T15:03:02;101173.20;;;22.80
71649;BMP180;59492;45.638;11.714;2022-10-22T15:05:28;101171.60;;;22.78
71649;BMP180;59492;45.638;11.714;2022-10-22T15:07:53;101174.60;;;22.70
71649;BMP180;59492;45.638;11.714;2022-10-22T15:10:19;101174.60;;;22.70
71649;BMP180;59492;45.638;11.714;2022-10-22T15:12:45;101180.80;;;22.70
71649;BMP180;59492;45.638;11.714;2022-10-22T15:15:10;101179.80;;;22.70
71649;BMP180;59492;45.638;11.714;2022-10-22T15:17:36;101180.60;;;22.70
71649;BMP180;59492;45.638;11.714;2022-10-22T15:20:03;101181.80;;;22.76
71649;BMP180;59492;45.638;11.714;2022-10-22T15:22:30;101181.60;;;22.70
71649;BMP180;59492;45.638;11.714;2022-10-22T15:25:04;101180.60;;;22.70
71649;BMP180;59492;45.638;11.714;2022-10-22T15:27:30;101186.20;;;22.64
71649;BMP180;59492;45.638;11.714;2022-10-22T15:29:56;101193.60;;;22.60
71649;BMP180;59492;45.638;11.714;2022-10-22T15:32:24;101190.00;;;22.60
71649;BMP180;59492;45.638;11.714;2022-10-22T15:34:51;101189.00;;;22.60